createdAt,value
2022-08-27T00:01:30.899Z,100360.54
2022-08-27T00:04:03.140Z,100355.89
2022-08-27T00:06:34.086Z,100355.50
2022-08-27T00:09:06.026Z,100352.89
2022-08-27T00:11:50.380Z,100345.95
2022-08-27T00:14:43.241Z,100339.59
2022-08-27T00:17:17.644Z,100343.09
2022-08-27T00:19:50.948Z,100335.98
2022-08-27T00:22:21.749Z,100341.96
2022-08-27T00:24:53.857Z,100342.24
2022-08-27T00:27:30.520Z,100347.40
2022-08-27T00:30:03.778Z,100344.59
2022-08-27T00:32:35.707Z,100345.16
2022-08-27T00:35:17.652Z,100342.81
2022-08-27T00:37:48.573Z,100343.79
2022-08-27T00:40:22.511Z,100339.40
2022-08-27T00:42:53.464Z,100340.40
2022-08-27T00:45:48.430Z,100345.95
2022-08-27T00:48:27.330Z,100345.53
2022-08-27T00:51:07.344Z,100349.75
2022-08-27T00:53:40.882Z,100346.74
2022-08-27T00:56:17.676Z,100342.69
2022-08-27T00:58:53.474Z,100345.69
2022-08-27T01:01:31.003Z,100347.20
2022-08-27T01:04:09.696Z,100349.27
2022-08-27T01:06:45.654Z,100349.31
2022-08-27T01:09:19.167Z,100349.21
2022-08-27T01:11:54.085Z,100349.34
2022-08-27T01:14:27.686Z,100345.20
2022-08-27T01:17:03.025Z,100343.05
2022-08-27T01:19:40.912Z,100339.80
2022-08-27T01:22:36.376Z,100337.99
2022-08-27T01:25:17.805Z,100337.60
2022-08-27T01:27:50.096Z,100331.29
2022-08-27T01:30:23.924Z,100339.16
2022-08-27T01:32:56.617Z,100342.83
2022-08-27T01:35:27.563Z,100344.66
2022-08-27T01:37:58.208Z,100352.70
2022-08-27T01:40:31.337Z,100351.81
2022-08-27T01:43:03.332Z,100353.58
2022-08-27T01:45:37.608Z,100353.29
2022-08-27T01:48:09.913Z,100356.74
2022-08-27T01:50:43.022Z,100355.92
2022-08-27T01:53:50.283Z,100365.67
2022-08-27T01:56:36.817Z,100360.90
2022-08-27T01:59:39.112Z,100365.98
2022-08-27T02:02:33.125Z,100357.21
2022-08-27T02:05:08.623Z,100355.88
2022-08-27T02:07:40.640Z,100357.33
2022-08-27T02:10:20.394Z,100354.92
2022-08-27T02:12:51.778Z,100353.91
2022-08-27T02:15:24.954Z,100350.06
2022-08-27T02:17:56.785Z,100345.64
2022-08-27T02:20:29.533Z,100338.08
2022-08-27T02:23:35.946Z,100340.52
2022-08-27T02:26:08.006Z,100339.52
2022-08-27T02:28:39.346Z,100338.16
2022-08-27T02:31:12.751Z,100334.52
2022-08-27T02:33:44.836Z,100336.39
2022-08-27T02:36:20.025Z,100335.48
2022-08-27T02:38:51.656Z,100333.67
2022-08-27T02:41:31.878Z,100333.77
2022-08-27T02:44:23.917Z,100333.20
2022-08-27T02:47:04.488Z,100333.35
2022-08-27T02:49:37.667Z,100330.64
2022-08-27T02:52:12.296Z,100329.91
2022-08-27T02:54:54.916Z,100326.65
2022-08-27T02:57:27.964Z,100323.13
2022-08-27T02:59:59.436Z,100326.86
2022-08-27T03:02:30.650Z,100329.64
2022-08-27T03:05:01.567Z,100326.09
2022-08-27T03:07:32.444Z,100325.05
2022-08-27T03:10:07.712Z,100326.37
2022-08-27T03:12:42.437Z,100329.79
2022-08-27T03:15:21.412Z,100327.12
2022-08-27T03:18:06.385Z,100328.23
2022-08-27T03:20:43.957Z,100333.95
2022-08-27T03:23:16.426Z,100332.45
2022-08-27T03:25:55.096Z,100328.11
2022-08-27T03:28:28.491Z,100331.01
2022-08-27T03:31:02.289Z,100325.94
2022-08-27T03:33:54.176Z,100323.86
2022-08-27T03:36:26.271Z,100323.52
2022-08-27T03:38:57.697Z,100324.80
2022-08-27T03:41:54.569Z,100323.16
2022-08-27T03:44:31.877Z,100333.64
2022-08-27T03:47:03.427Z,100329.98
2022-08-27T03:49:38.477Z,100332.99
2022-08-27T03:52:11.153Z,100331.33
2022-08-27T03:54:42.807Z,100332.11
2022-08-27T03:57:14.600Z,100330.30
2022-08-27T03:59:45.626Z,100328.88
2022-08-27T04:02:16.868Z,100334.75
2022-08-27T04:04:47.904Z,100340.02
2022-08-27T04:07:18.628Z,100335.98
2022-08-27T04:09:49.740Z,100342.31
2022-08-27T04:12:21.607Z,100339.09
2022-08-27T04:14:53.639Z,100343.61
2022-08-27T04:17:25.371Z,100346.88
2022-08-27T04:19:56.271Z,100342.34
2022-08-27T04:22:26.934Z,100337.45
2022-08-27T04:25:38.186Z,100342.80
2022-08-27T04:28:14.512Z,100337.41
2022-08-27T04:31:13.909Z,100335.23
2022-08-27T04:33:58.154Z,100336.30
2022-08-27T04:37:07.911Z,100327.83
2022-08-27T04:40:05.852Z,100337.20
2022-08-27T04:42:57.312Z,100327.52
2022-08-27T04:45:44.866Z,100326.69
2022-08-27T04:48:24.529Z,100325.14
2022-08-27T04:51:18.677Z,100326.36
2022-08-27T04:55:28.235Z,100328.23
2022-08-27T04:58:00.645Z,100331.02
2022-08-27T05:00:31.299Z,100332.41
2022-08-27T05:03:02.657Z,100328.69
2022-08-27T05:05:34.288Z,100329.39
2022-08-27T05:08:07.626Z,100334.57
2022-08-27T05:10:49.568Z,100335.98
2022-08-27T05:13:23.386Z,100337.58
2022-08-27T05:16:06.775Z,100334.96
2022-08-27T05:18:44.277Z,100334.55
2022-08-27T05:21:28.034Z,100330.20
2022-08-27T05:23:59.529Z,100330.34
2022-08-27T05:26:31.613Z,100336.17
2022-08-27T05:29:02.847Z,100340.26
2022-08-27T05:31:33.863Z,100338.83
2022-08-27T05:34:10.231Z,100338.95
2022-08-27T05:36:47.930Z,100339.21
2022-08-27T05:39:20.034Z,100339.19
2022-08-27T05:41:52.815Z,100334.67
2022-08-27T05:45:05.487Z,100334.97
2022-08-27T05:48:01.717Z,100330.83
2022-08-27T05:51:08.727Z,100331.98
2022-08-27T05:53:42.568Z,100329.58
2022-08-27T05:57:10.069Z,100328.57
2022-08-27T06:00:14.869Z,100328.89
2022-08-27T06:02:47.285Z,100331.58
2022-08-27T06:05:17.998Z,100333.27
2022-08-27T06:07:48.649Z,100328.71
2022-08-27T06:10:19.740Z,100327.58
2022-08-27T06:12:53.748Z,100327.79
2022-08-27T06:15:32.237Z,100326.80
2022-08-27T06:18:05.774Z,100321.40
2022-08-27T06:20:36.974Z,100323.88
2022-08-27T06:23:08.235Z,100327.67
2022-08-27T06:25:44.306Z,100324.17
2022-08-27T06:28:41.896Z,100324.02
2022-08-27T06:32:03.821Z,100326.20
2022-08-27T06:34:35.644Z,100327.86
2022-08-27T06:37:13.837Z,100325.93
2022-08-27T06:39:55.511Z,100320.85
2022-08-27T06:46:06.784Z,100318.70
2022-08-27T06:48:54.642Z,100315.52
2022-08-27T06:51:52.881Z,100317.66
2022-08-27T06:54:56.689Z,100310.14
2022-08-27T06:57:40.732Z,100304.38
2022-08-27T07:00:19.991Z,100315.41
2022-08-27T07:03:10.250Z,100315.07
2022-08-27T07:05:44.884Z,100310.39
2022-08-27T07:08:28.776Z,100317.40
2022-08-27T07:11:13.486Z,100317.08
2022-08-27T07:13:53.335Z,100319.54
2022-08-27T07:16:27.103Z,100318.97
2022-08-27T07:19:08.703Z,100315.34
2022-08-27T07:21:41.758Z,100320.61
2022-08-27T07:24:15.613Z,100315.12
2022-08-27T07:26:47.326Z,100317.92
2022-08-27T07:29:18.544Z,100311.77
2022-08-27T07:31:49.386Z,100309.02
2022-08-27T07:38:15.381Z,100310.40
2022-08-27T07:40:45.944Z,100307.59
2022-08-27T07:43:33.451Z,100304.67
2022-08-27T07:46:04.830Z,100301.94
2022-08-27T07:53:09.039Z,100305.54
2022-08-27T07:59:13.158Z,100302.40
2022-08-27T08:01:44.377Z,100303.17
2022-08-27T08:04:19.512Z,100305.71
2022-08-27T08:06:51.955Z,100305.68
2022-08-27T08:09:24.312Z,100305.77
2022-08-27T08:11:55.671Z,100304.05
2022-08-27T08:14:26.648Z,100300.33
2022-08-27T08:17:10.059Z,100302.15
2022-08-27T08:19:50.192Z,100298.63
2022-08-27T08:23:34.787Z,100297.85
2022-08-27T08:26:31.732Z,100302.86
2022-08-27T08:45:43.658Z,100299.11
2022-08-27T08:48:58.747Z,100302.69
2022-08-27T08:59:24.619Z,100287.95
2022-08-27T09:02:16.156Z,100289.44
2022-08-27T09:04:58.345Z,100280.33
2022-08-27T09:07:46.108Z,100286.11
2022-08-27T09:10:58.284Z,100287.73
2022-08-27T09:16:41.302Z,100281.40
2022-08-27T09:23:47.812Z,100277.30
2022-08-27T09:27:05.930Z,100278.41
2022-08-27T09:30:40.341Z,100273.11
2022-08-27T09:43:14.904Z,100257.94
2022-08-27T09:46:18.726Z,100259.69
2022-08-27T09:50:43.606Z,100264.29
2022-08-27T09:53:48.557Z,100262.33
2022-08-27T09:57:51.118Z,100261.52
2022-08-27T10:00:47.965Z,100257.83
2022-08-27T10:08:03.678Z,100257.83
2022-08-27T10:16:36.894Z,100254.16
2022-08-27T10:20:30.478Z,100256.73
2022-08-27T10:28:34.885Z,100248.73
2022-08-27T10:31:31.638Z,100255.98
2022-08-27T10:34:19.147Z,100249.39
2022-08-27T10:37:36.628Z,100249.50
2022-08-27T10:40:27.864Z,100243.30
2022-08-27T10:43:30.501Z,100245.56
2022-08-27T10:47:31.753Z,100245.05
2022-08-27T10:50:20.114Z,100245.86
2022-08-27T10:53:18.658Z,100247.67
2022-08-27T10:55:59.587Z,100243.41
2022-08-27T10:58:51.456Z,100242.28
2022-08-27T11:01:40.318Z,100239.67
2022-08-27T11:04:35.113Z,100241.02
2022-08-27T11:12:13.332Z,100241.79
2022-08-27T11:19:20.676Z,100245.30
2022-08-27T11:22:26.149Z,100240.36
2022-08-27T11:25:53.995Z,100241.09
2022-08-27T11:28:38.278Z,100235.57
2022-08-27T11:31:38.705Z,100233.22
2022-08-27T11:34:45.646Z,100235.40
2022-08-27T11:37:58.186Z,100227.54
2022-08-27T11:41:00.745Z,100229.27
2022-08-27T11:43:37.666Z,100231.69
2022-08-27T11:46:13.949Z,100232.16
2022-08-27T11:49:10.746Z,100235.91
2022-08-27T11:51:43.795Z,100230.91
2022-08-27T11:58:22.577Z,100226.45
2022-08-27T12:00:54.749Z,100224.65
2022-08-27T12:07:14.636Z,100225.48
2022-08-27T12:10:11.901Z,100224.91
2022-08-27T12:13:03.139Z,100218.20
2022-08-27T12:15:36.503Z,100217.34
2022-08-27T12:19:19.578Z,100221.76
2022-08-27T12:22:56.083Z,100216.13
2022-08-27T12:26:19.731Z,100217.08
2022-08-27T12:29:47.775Z,100207.20
2022-08-27T12:32:44.867Z,100208.91
2022-08-27T12:35:40.646Z,100213.06
2022-08-27T12:38:56.759Z,100207.13
2022-08-27T12:42:13.668Z,100203.59
2022-08-27T12:45:28.764Z,100207.80
2022-08-27T12:48:48.770Z,100205.83
2022-08-27T12:52:08.507Z,100211.41
2022-08-27T12:55:26.723Z,100208.38
2022-08-27T12:59:01.626Z,100208.08
2022-08-27T13:02:31.566Z,100200.15
2022-08-27T13:06:53.687Z,100197.83
2022-08-27T13:10:10.603Z,100200.90
2022-08-27T13:13:40.704Z,100194.02
2022-08-27T13:16:57.913Z,100195.13
2022-08-27T13:20:33.038Z,100194.02
2022-08-27T13:23:47.924Z,100189.41
2022-08-27T13:27:03.535Z,100192.30
2022-08-27T13:30:35.191Z,100193.23
2022-08-27T13:33:51.664Z,100186.03
2022-08-27T13:37:18.929Z,100181.73
2022-08-27T13:41:01.705Z,100181.09
2022-08-27T13:44:20.698Z,100182.52
2022-08-27T13:48:09.045Z,100180.04
2022-08-27T13:51:24.442Z,100176.55
2022-08-27T13:54:20.675Z,100176.00
2022-08-27T13:57:47.965Z,100169.67
2022-08-27T14:01:09.690Z,100172.78
2022-08-27T14:04:09.502Z,100169.81
2022-08-27T14:07:19.738Z,100168.68
2022-08-27T14:10:51.627Z,100169.02
2022-08-27T14:14:11.875Z,100173.90
2022-08-27T14:17:36.919Z,100172.72
2022-08-27T14:21:00.791Z,100173.73
2022-08-27T14:24:39.647Z,100167.02
2022-08-27T14:28:00.618Z,100170.66
2022-08-27T14:31:24.710Z,100174.81
2022-08-27T14:34:45.614Z,100173.02
2022-08-27T14:38:07.682Z,100172.75
2022-08-27T14:41:54.673Z,100176.52
2022-08-27T14:45:25.013Z,100174.70
2022-08-27T14:48:32.946Z,100169.82
2022-08-27T14:51:27.068Z,100170.99
2022-08-27T14:54:00.465Z,100171.77
2022-08-27T14:56:31.479Z,100174.20
2022-08-27T14:59:02.368Z,100170.11
2022-08-27T15:01:37.612Z,100163.27
2022-08-27T15:04:09.404Z,100160.79
2022-08-27T15:16:20.623Z,100159.59
2022-08-27T15:19:59.036Z,100161.45
2022-08-27T15:22:56.733Z,100159.70
2022-08-27T15:26:13.034Z,100160.41
2022-08-27T15:28:51.559Z,100157.09
2022-08-27T15:31:49.650Z,100160.09
2022-08-27T15:48:38.240Z,100147.79
2022-08-27T15:51:30.816Z,100145.94
2022-08-27T15:54:02.516Z,100143.33
2022-08-27T15:56:45.561Z,100144.11
2022-08-27T16:00:01.661Z,100142.02
2022-08-27T16:03:15.584Z,100142.38
2022-08-27T16:06:39.167Z,100133.49
2022-08-27T16:09:55.044Z,100132.22
2022-08-27T16:13:12.328Z,100126.26
2022-08-27T16:16:28.415Z,100135.30
2022-08-27T16:19:42.586Z,100133.52
2022-08-27T16:22:59.381Z,100136.67
2022-08-27T16:26:13.428Z,100138.88
2022-08-27T16:29:35.675Z,100136.16
2022-08-27T16:32:52.722Z,100140.41
2022-08-27T17:03:23.082Z,100140.44
2022-08-27T17:07:59.178Z,100138.91
2022-08-27T17:11:08.306Z,100140.63
2022-08-27T17:14:27.420Z,100141.74
2022-08-27T17:17:52.417Z,100137.54
2022-08-27T17:21:10.329Z,100143.86
2022-08-27T17:24:34.377Z,100148.14
2022-08-27T17:27:41.552Z,100154.20
2022-08-27T17:31:01.737Z,100153.81
2022-08-27T17:34:18.838Z,100157.30
2022-08-27T17:37:49.040Z,100156.54
2022-08-27T17:41:16.677Z,100160.75
2022-08-27T17:44:49.983Z,100161.86
2022-08-27T17:51:53.860Z,100162.89
2022-08-27T17:55:14.647Z,100169.14
2022-08-27T17:59:01.722Z,100167.96
2022-08-27T18:02:49.002Z,100170.16
2022-08-27T18:07:12.246Z,100175.33
2022-08-27T18:14:13.131Z,100180.94
2022-08-27T18:18:09.131Z,100180.64
2022-08-27T18:22:03.616Z,100186.16
2022-08-27T18:25:36.407Z,100191.52
2022-08-27T18:29:13.511Z,100186.96
2022-08-27T18:32:39.677Z,100188.89
2022-08-27T18:36:17.328Z,100195.65
2022-08-27T18:39:43.077Z,100196.63
2022-08-27T18:43:32.671Z,100195.48
2022-08-27T18:47:13.850Z,100193.96
2022-08-27T18:50:57.576Z,100196.59
2022-08-27T18:58:12.881Z,100203.82
2022-08-27T19:01:58.014Z,100208.07
2022-08-27T19:17:54.423Z,100216.23
2022-08-27T19:25:14.497Z,100218.89
2022-08-27T19:28:51.201Z,100220.42
2022-08-27T19:32:17.504Z,100218.95
2022-08-27T19:38:59.549Z,100208.92
2022-08-27T20:05:56.538Z,100216.95
2022-08-27T20:09:19.613Z,100216.28
2022-08-27T20:12:48.049Z,100221.67
2022-08-27T20:16:13.600Z,100226.88
2022-08-27T20:19:32.369Z,100230.58
2022-08-27T20:22:49.536Z,100237.27
2022-08-27T20:26:09.412Z,100241.69
2022-08-27T20:32:42.677Z,100238.23
2022-08-27T20:44:01.525Z,100233.36
2022-08-27T20:50:55.034Z,100235.58
2022-08-27T20:54:48.928Z,100232.30
2022-08-27T21:01:29.358Z,100225.99
2022-08-27T21:04:48.517Z,100226.98
2022-08-27T21:08:04.625Z,100227.20
2022-08-27T21:11:01.330Z,100223.52
2022-08-27T21:14:18.337Z,100221.95
2022-08-27T21:17:46.420Z,100225.01
2022-08-27T21:21:05.713Z,100222.31
2022-08-27T21:24:24.294Z,100220.91
2022-08-27T21:27:51.486Z,100219.77
2022-08-27T21:31:17.649Z,100219.09
2022-08-27T21:34:40.206Z,100225.98
